createdAt,value
2023-03-26T00:00:54.349Z,97787.38
2023-03-26T00:03:35.970Z,97785.16
2023-03-26T00:06:29.754Z,97787.53
2023-03-26T00:08:57.726Z,97790.41
2023-03-26T00:11:27.439Z,97796.13
2023-03-26T00:13:57.013Z,97781.19
2023-03-26T00:16:25.451Z,97784.75
2023-03-26T00:18:53.513Z,97782.91
2023-03-26T00:21:21.917Z,97786.59
2023-03-26T00:23:49.236Z,97780.91
2023-03-26T00:26:17.464Z,97786.88
2023-03-26T00:28:44.697Z,97783.50
2023-03-26T00:31:13.134Z,97773.88
2023-03-26T00:33:40.916Z,97768.06
2023-03-26T00:36:10.894Z,97769.75
2023-03-26T00:38:39.266Z,97766.75
2023-03-26T00:41:08.054Z,97761.91
2023-03-26T00:43:35.867Z,97760.22
2023-03-26T00:46:03.127Z,97759.53
2023-03-26T00:48:42.268Z,97758.66
2023-03-26T00:51:11.733Z,97768.06
2023-03-26T00:53:39.060Z,97759.84
2023-03-26T00:56:06.753Z,97756.41
2023-03-26T00:58:34.081Z,97764.81
2023-03-26T01:01:03.423Z,97756.72
2023-03-26T01:03:35.203Z,97763.94
2023-03-26T01:06:04.840Z,97779.72
2023-03-26T01:08:38.240Z,97763.69
2023-03-26T01:11:16.121Z,97763.25
2023-03-26T01:13:48.943Z,97767.81
2023-03-26T01:16:28.660Z,97769.41
2023-03-26T01:18:58.793Z,97755.06
2023-03-26T01:21:29.949Z,97759.75
2023-03-26T01:24:05.191Z,97760.88
2023-03-26T01:26:41.122Z,97757.19
2023-03-26T01:29:11.820Z,97757.34
2023-03-26T01:32:13.811Z,97750.28
2023-03-26T01:34:53.098Z,97748.00
2023-03-26T01:37:32.621Z,97758.94
2023-03-26T01:40:07.035Z,97756.09
2023-03-26T01:42:33.761Z,97760.97
2023-03-26T01:45:06.925Z,97758.53
2023-03-26T01:47:33.745Z,97767.19
2023-03-26T01:50:00.972Z,97757.09
2023-03-26T01:52:27.811Z,97750.72
2023-03-26T01:54:54.941Z,97742.50
2023-03-26T01:57:42.932Z,97749.16
2023-03-26T02:00:22.727Z,97744.78
2023-03-26T02:02:55.077Z,97748.59
2023-03-26T02:05:33.265Z,97752.19
2023-03-26T02:08:02.786Z,97740.09
2023-03-26T02:10:31.251Z,97743.50
2023-03-26T02:12:58.031Z,97748.91
2023-03-26T02:15:25.273Z,97742.25
2023-03-26T02:17:53.078Z,97747.50
2023-03-26T02:20:21.184Z,97739.41
2023-03-26T02:22:48.023Z,97734.03
2023-03-26T02:25:16.830Z,97727.53
2023-03-26T02:27:44.134Z,97722.69
2023-03-26T02:30:13.794Z,97721.53
2023-03-26T02:32:40.603Z,97722.69
2023-03-26T02:35:08.041Z,97725.22
2023-03-26T02:37:34.893Z,97729.06
2023-03-26T02:40:02.119Z,97721.66
2023-03-26T02:42:29.094Z,97715.72
2023-03-26T02:44:56.235Z,97717.44
2023-03-26T02:47:22.998Z,97720.28
2023-03-26T02:49:50.116Z,97728.34
2023-03-26T02:52:18.679Z,97727.38
2023-03-26T02:54:45.857Z,97727.53
2023-03-26T02:57:12.669Z,97724.81
2023-03-26T02:59:39.893Z,97714.03
2023-03-26T03:02:06.715Z,97717.72
2023-03-26T03:04:33.751Z,97712.03
2023-03-26T03:07:00.956Z,97714.19
2023-03-26T03:09:27.989Z,97711.50
2023-03-26T03:11:54.731Z,97715.03
2023-03-26T03:14:21.799Z,97707.91
2023-03-26T03:16:48.621Z,97717.88
2023-03-26T03:19:15.785Z,97705.53
2023-03-26T03:21:42.600Z,97701.28
2023-03-26T03:24:09.880Z,97704.81
2023-03-26T03:26:37.669Z,97712.22
2023-03-26T03:29:04.744Z,97709.50
2023-03-26T03:31:31.649Z,97705.97
2023-03-26T03:33:58.746Z,97709.66
2023-03-26T03:36:28.011Z,97719.44
2023-03-26T03:38:55.401Z,97716.19
2023-03-26T03:41:22.140Z,97710.66
2023-03-26T03:43:49.223Z,97719.75
2023-03-26T03:46:16.005Z,97720.72
2023-03-26T03:48:48.223Z,97718.03
2023-03-26T03:51:15.922Z,97716.34
2023-03-26T03:53:42.976Z,97719.75
2023-03-26T03:56:10.546Z,97721.19
2023-03-26T03:58:37.709Z,97717.47
2023-03-26T04:01:04.689Z,97716.91
2023-03-26T04:03:33.370Z,97717.63
2023-03-26T04:06:01.323Z,97717.91
2023-03-26T04:08:28.399Z,97718.63
2023-03-26T04:10:55.237Z,97717.91
2023-03-26T04:13:22.308Z,97719.91
2023-03-26T04:15:49.131Z,97722.03
2023-03-26T04:18:16.160Z,97719.47
2023-03-26T04:20:46.936Z,97725.88
2023-03-26T04:23:14.310Z,97720.50
2023-03-26T04:25:48.484Z,97726.72
2023-03-26T04:28:36.404Z,97735.09
2023-03-26T04:31:03.929Z,97735.22
2023-03-26T04:33:32.447Z,97740.63
2023-03-26T04:36:02.628Z,97732.69
2023-03-26T04:38:33.447Z,97731.28
2023-03-26T04:41:03.298Z,97735.78
2023-03-26T04:43:35.490Z,97731.97
2023-03-26T04:46:03.378Z,97733.56
2023-03-26T04:48:30.432Z,97728.00
2023-03-26T04:50:57.396Z,97723.34
2023-03-26T04:53:24.486Z,97721.34
2023-03-26T04:55:56.230Z,97721.34
2023-03-26T04:58:30.100Z,97715.25
2023-03-26T05:00:57.407Z,97719.50
2023-03-26T05:03:25.712Z,97720.66
2023-03-26T05:05:52.620Z,97719.63
2023-03-26T05:08:19.902Z,97721.47
2023-03-26T05:10:46.717Z,97722.78
2023-03-26T05:13:13.886Z,97724.31
2023-03-26T05:15:40.767Z,97731.56
2023-03-26T05:18:08.939Z,97733.41
2023-03-26T05:20:36.057Z,97723.34
2023-03-26T05:23:03.114Z,97730.13
2023-03-26T05:25:30.039Z,97735.69
2023-03-26T05:27:57.152Z,97737.66
2023-03-26T05:30:24.019Z,97740.78
2023-03-26T05:32:52.007Z,97740.34
2023-03-26T05:35:18.993Z,97739.50
2023-03-26T05:37:46.593Z,97734.81
2023-03-26T05:40:14.830Z,97736.53
2023-03-26T05:42:41.942Z,97734.25
2023-03-26T05:45:09.569Z,97737.09
2023-03-26T05:47:36.677Z,97733.00
2023-03-26T05:50:06.175Z,97736.94
2023-03-26T05:52:33.338Z,97739.09
2023-03-26T05:55:00.263Z,97737.66
2023-03-26T05:57:30.035Z,97737.78
2023-03-26T05:59:56.820Z,97732.41
2023-03-26T06:02:24.058Z,97735.81
2023-03-26T06:04:51.126Z,97731.13
2023-03-26T06:07:18.542Z,97736.38
2023-03-26T06:09:45.378Z,97734.94
2023-03-26T06:12:12.960Z,97734.25
2023-03-26T06:14:39.773Z,97735.53
2023-03-26T06:17:06.818Z,97738.25
2023-03-26T06:19:33.611Z,97739.34
2023-03-26T06:22:00.682Z,97740.94
2023-03-26T06:24:27.505Z,97742.91
2023-03-26T06:26:54.571Z,97741.63
2023-03-26T06:29:21.312Z,97742.34
2023-03-26T06:31:48.637Z,97741.22
2023-03-26T06:34:15.503Z,97749.72
2023-03-26T06:36:42.556Z,97747.03
2023-03-26T06:39:09.385Z,97752.28
2023-03-26T06:41:36.495Z,97752.13
2023-03-26T06:44:03.263Z,97746.28
2023-03-26T06:46:30.428Z,97751.25
2023-03-26T06:48:57.199Z,97754.50
2023-03-26T06:51:24.319Z,97752.38
2023-03-26T06:53:51.122Z,97752.38
2023-03-26T06:56:18.168Z,97752.22
2023-03-26T06:58:44.932Z,97751.41
2023-03-26T07:01:12.002Z,97755.06
2023-03-26T07:03:38.818Z,97748.53
2023-03-26T07:06:06.166Z,97743.00
2023-03-26T07:08:33.268Z,97739.16
2023-03-26T07:11:00.545Z,97740.88
2023-03-26T07:13:27.299Z,97745.25
2023-03-26T07:15:54.361Z,97748.69
2023-03-26T07:18:21.118Z,97751.06
2023-03-26T07:20:48.608Z,97751.78
2023-03-26T07:23:20.093Z,97750.63
2023-03-26T07:25:48.374Z,97749.06
2023-03-26T07:28:36.920Z,97751.03
2023-03-26T07:31:08.493Z,97750.75
2023-03-26T07:33:39.811Z,97758.69
2023-03-26T07:36:26.815Z,97754.88
2023-03-26T07:39:19.313Z,97746.47
2023-03-26T07:41:49.412Z,97752.72
2023-03-26T07:44:43.908Z,97749.88
2023-03-26T07:47:31.576Z,97756.53
2023-03-26T07:49:58.732Z,97752.69
2023-03-26T07:52:26.652Z,97759.63
2023-03-26T07:54:53.833Z,97746.56
2023-03-26T07:57:39.806Z,97755.81
2023-03-26T08:00:10.249Z,97754.50
2023-03-26T08:02:43.183Z,97751.38
2023-03-26T08:05:18.945Z,97743.97
2023-03-26T08:07:50.809Z,97739.66
2023-03-26T08:10:27.445Z,97737.50
2023-03-26T08:13:07.844Z,97738.09
2023-03-26T08:16:10.052Z,97733.38
2023-03-26T08:18:51.986Z,97725.53
2023-03-26T08:21:21.874Z,97735.31
2023-03-26T08:23:55.133Z,97724.91
2023-03-26T08:26:44.140Z,97720.78
2023-03-26T08:29:35.017Z,97721.00
2023-03-26T08:32:01.871Z,97731.91
2023-03-26T08:34:28.990Z,97719.63
2023-03-26T08:36:55.771Z,97717.00
2023-03-26T08:39:22.871Z,97714.41
2023-03-26T08:41:49.698Z,97712.22
2023-03-26T08:44:19.435Z,97718.16
2023-03-26T08:46:46.499Z,97714.84
2023-03-26T08:49:57.308Z,97705.56
2023-03-26T08:52:37.588Z,97709.38
2023-03-26T08:55:04.619Z,97709.75
2023-03-26T08:57:39.625Z,97704.03
2023-03-26T09:00:13.682Z,97712.47
2023-03-26T09:02:57.310Z,97712.31
2023-03-26T09:05:46.643Z,97710.97
2023-03-26T09:08:25.802Z,97714.34
2023-03-26T09:11:15.417Z,97713.53
2023-03-26T09:14:15.586Z,97710.50
2023-03-26T09:16:57.867Z,97713.75
2023-03-26T09:19:53.655Z,97710.34
2023-03-26T09:22:47.995Z,97712.19
2023-03-26T09:25:22.291Z,97709.47
2023-03-26T09:28:20.741Z,97718.47
2023-03-26T09:31:06.454Z,97716.44
2023-03-26T09:33:42.743Z,97720.53
2023-03-26T09:36:27.141Z,97715.13
2023-03-26T09:39:04.284Z,97710.25
2023-03-26T09:41:57.230Z,97703.00
2023-03-26T09:44:27.125Z,97699.25
2023-03-26T09:47:19.887Z,97706.53
2023-03-26T09:50:24.517Z,97708.09
2023-03-26T09:53:00.509Z,97704.34
2023-03-26T09:55:43.331Z,97698.44
2023-03-26T09:58:42.266Z,97700.59
2023-03-26T10:01:11.172Z,97699.25
2023-03-26T10:04:05.301Z,97694.19
2023-03-26T10:06:54.280Z,97692.34
2023-03-26T10:09:36.129Z,97689.94
2023-03-26T10:12:09.386Z,97689.63
2023-03-26T10:14:42.544Z,97689.47
2023-03-26T10:17:37.330Z,97693.69
2023-03-26T10:20:33.114Z,97690.00
2023-03-26T10:23:06.621Z,97689.84
2023-03-26T10:25:43.346Z,97693.75
2023-03-26T10:28:39.759Z,97688.19
2023-03-26T10:31:06.686Z,97681.28
2023-03-26T10:34:28.380Z,97669.66
2023-03-26T10:37:20.467Z,97674.13
2023-03-26T10:39:50.568Z,97659.59
2023-03-26T10:43:01.037Z,97663.00
2023-03-26T10:45:46.723Z,97654.88
2023-03-26T10:48:16.681Z,97651.84
2023-03-26T10:51:12.938Z,97648.50
2023-03-26T10:53:57.334Z,97646.50
2023-03-26T10:56:28.314Z,97645.34
2023-03-26T10:58:56.836Z,97646.19
2023-03-26T11:01:40.371Z,97633.69
2023-03-26T11:04:53.861Z,97633.53
2023-03-26T11:07:47.316Z,97623.59
2023-03-26T11:10:16.658Z,97628.34
2023-03-26T11:12:49.151Z,97625.63
2023-03-26T11:15:28.408Z,97626.00
2023-03-26T11:18:04.707Z,97617.91
2023-03-26T11:20:56.046Z,97614.50
2023-03-26T11:24:09.041Z,97617.41
2023-03-26T11:26:55.794Z,97613.00
2023-03-26T11:29:33.465Z,97613.53
2023-03-26T11:32:13.294Z,97606.63
2023-03-26T11:34:49.651Z,97607.47
2023-03-26T11:37:53.868Z,97607.47
2023-03-26T11:40:24.410Z,97616.25
2023-03-26T11:42:52.548Z,97618.13
2023-03-26T11:45:21.047Z,97610.34
2023-03-26T11:47:50.688Z,97611.00
2023-03-26T11:50:27.120Z,97601.88
2023-03-26T11:53:03.451Z,97602.44
2023-03-26T11:55:30.531Z,97600.88
2023-03-26T11:57:58.208Z,97604.81
2023-03-26T12:00:27.516Z,97590.22
2023-03-26T12:02:58.618Z,97587.72
2023-03-26T12:05:29.481Z,97577.72
2023-03-26T12:07:57.449Z,97583.78
2023-03-26T12:10:27.809Z,97573.97
2023-03-26T12:12:56.397Z,97575.34
2023-03-26T12:15:23.660Z,97573.28
2023-03-26T12:17:53.636Z,97557.19
2023-03-26T12:20:24.985Z,97553.16
2023-03-26T12:23:01.645Z,97550.78
2023-03-26T12:25:30.123Z,97544.16
2023-03-26T12:28:06.118Z,97545.19
2023-03-26T12:30:34.937Z,97538.03
2023-03-26T12:33:04.397Z,97541.09
2023-03-26T12:35:34.384Z,97527.19
2023-03-26T12:38:21.865Z,97516.34
2023-03-26T12:40:49.566Z,97525.47
2023-03-26T12:44:48.826Z,97521.59
2023-03-26T12:47:56.501Z,97522.09
2023-03-26T12:49:20.081Z,97507.88
2023-03-26T12:51:57.782Z,97508.38
2023-03-26T12:54:28.876Z,97501.06
2023-03-26T12:57:16.957Z,97503.09
2023-03-26T12:59:46.999Z,97494.94
2023-03-26T13:02:16.999Z,97490.16
2023-03-26T13:05:05.706Z,97482.16
2023-03-26T13:07:58.891Z,97483.66
2023-03-26T13:10:37.812Z,97481.28
2023-03-26T13:13:05.204Z,97476.41
2023-03-26T13:15:36.570Z,97467.84
2023-03-26T13:18:24.883Z,97476.50
2023-03-26T13:20:55.817Z,97469.38
2023-03-26T13:23:29.279Z,97461.72
2023-03-26T13:26:28.285Z,97470.16
2023-03-26T13:29:30.090Z,97472.34
2023-03-26T13:32:21.526Z,97468.09
2023-03-26T13:35:13.971Z,97462.50
2023-03-26T13:38:08.718Z,97462.66
2023-03-26T13:40:38.762Z,97461.78
2023-03-26T13:43:40.938Z,97458.38
2023-03-26T13:46:20.079Z,97453.25
2023-03-26T13:48:58.737Z,97451.19
2023-03-26T13:51:41.094Z,97451.84
2023-03-26T13:54:07.828Z,97459.28
2023-03-26T13:56:43.758Z,97449.25
2023-03-26T13:59:21.553Z,97450.06
2023-03-26T14:01:55.130Z,97451.59
2023-03-26T14:04:33.502Z,97448.72
2023-03-26T14:07:15.794Z,97446.00
2023-03-26T14:09:54.738Z,97443.47
2023-03-26T14:12:27.890Z,97433.25
2023-03-26T14:14:54.659Z,97429.81
2023-03-26T14:17:47.450Z,97429.81
2023-03-26T14:20:44.709Z,97434.72
2023-03-26T14:23:31.046Z,97425.88
2023-03-26T14:26:07.551Z,97423.56
2023-03-26T14:29:02.511Z,97419.97
2023-03-26T14:31:51.918Z,97421.50
2023-03-26T14:34:29.011Z,97424.56
2023-03-26T14:37:50.842Z,97420.63
2023-03-26T14:40:38.228Z,97416.41
2023-03-26T14:43:05.171Z,97421.66
2023-03-26T14:45:35.103Z,97419.44
2023-03-26T14:48:26.759Z,97405.56
2023-03-26T14:51:03.097Z,97415.47
2023-03-26T14:53:33.533Z,97409.34
2023-03-26T14:56:19.399Z,97410.94
2023-03-26T14:59:12.208Z,97408.41
2023-03-26T15:02:17.486Z,97411.94
2023-03-26T15:05:21.993Z,97407.09
2023-03-26T15:08:00.949Z,97409.13
2023-03-26T15:10:36.518Z,97393.59
2023-03-26T15:13:28.274Z,97397.97
2023-03-26T15:16:24.084Z,97399.66
2023-03-26T15:19:03.848Z,97397.13
2023-03-26T15:22:02.735Z,97390.38
2023-03-26T15:24:57.543Z,97388.34
2023-03-26T15:27:48.360Z,97385.97
2023-03-26T15:30:33.702Z,97384.84
2023-03-26T15:33:27.224Z,97388.22
2023-03-26T15:36:16.043Z,97384.66
2023-03-26T15:38:59.781Z,97392.97
2023-03-26T15:41:28.602Z,97385.50
2023-03-26T15:44:23.498Z,97387.56
2023-03-26T15:47:18.604Z,97381.09
2023-03-26T15:49:59.205Z,97371.59
2023-03-26T15:52:30.578Z,97378.03
2023-03-26T15:55:06.005Z,97369.25
2023-03-26T15:57:39.170Z,97363.34
2023-03-26T16:00:23.254Z,97361.63
2023-03-26T16:02:53.729Z,97373.84
2023-03-26T16:05:24.260Z,97368.22
2023-03-26T16:08:14.964Z,97361.75
2023-03-26T16:10:56.125Z,97357.91
2023-03-26T16:13:26.273Z,97358.75
2023-03-26T16:16:06.860Z,97352.84
2023-03-26T16:18:41.042Z,97349.66
2023-03-26T16:21:31.672Z,97353.56
2023-03-26T16:24:02.797Z,97351.03
2023-03-26T16:26:44.765Z,97347.66
2023-03-26T16:29:14.705Z,97351.75
2023-03-26T16:32:19.102Z,97355.84
2023-03-26T16:34:55.647Z,97358.56
2023-03-26T16:37:32.119Z,97358.25
2023-03-26T16:40:20.808Z,97366.91
2023-03-26T16:43:06.621Z,97364.59
2023-03-26T16:46:07.852Z,97365.94
2023-03-26T16:48:47.665Z,97375.97
2023-03-26T16:51:20.633Z,97372.75
2023-03-26T16:54:06.314Z,97374.47
2023-03-26T16:56:53.010Z,97374.81
2023-03-26T17:00:06.783Z,97372.13
2023-03-26T17:02:42.950Z,97372.31
2023-03-26T17:05:38.331Z,97374.50
2023-03-26T17:08:35.401Z,97366.06
2023-03-26T17:11:05.260Z,97366.44
2023-03-26T17:14:06.100Z,97375.28
2023-03-26T17:16:46.042Z,97363.47
2023-03-26T17:19:33.959Z,97374.47
2023-03-26T17:22:29.463Z,97392.59
2023-03-26T17:25:01.515Z,97392.97
2023-03-26T17:27:54.634Z,97382.81
2023-03-26T17:30:31.021Z,97392.78
2023-03-26T17:33:03.949Z,97388.03
2023-03-26T17:35:45.077Z,97390.75
2023-03-26T17:38:17.930Z,97388.38
2023-03-26T17:40:55.184Z,97377.91
2023-03-26T17:43:53.165Z,97392.66
2023-03-26T17:46:42.312Z,97382.81
2023-03-26T17:49:12.174Z,97385.53
2023-03-26T17:51:41.899Z,97388.72
2023-03-26T17:54:23.977Z,97391.78
2023-03-26T17:56:52.638Z,97395.84
2023-03-26T17:59:23.561Z,97406.53
2023-03-26T18:01:53.135Z,97407.53
2023-03-26T18:04:48.457Z,97404.16
2023-03-26T18:08:14.246Z,97401.13
2023-03-26T18:10:49.867Z,97401.28
2023-03-26T18:13:17.112Z,97401.63
2023-03-26T18:16:03.565Z,97403.00
2023-03-26T18:18:37.232Z,97405.00
2023-03-26T18:21:07.209Z,97405.38
2023-03-26T18:23:47.714Z,97408.09
2023-03-26T18:26:42.305Z,97406.38
2023-03-26T18:29:23.974Z,97399.97
2023-03-26T18:32:10.147Z,97393.88
2023-03-26T18:34:39.502Z,97396.56
2023-03-26T18:37:25.997Z,97398.94
2023-03-26T18:40:00.797Z,97396.25
2023-03-26T18:42:29.081Z,97387.94
2023-03-26T18:44:59.855Z,97384.75
2023-03-26T18:47:29.296Z,97382.38
2023-03-26T18:49:56.548Z,97379.16
2023-03-26T18:52:23.388Z,97384.09
2023-03-26T18:54:52.357Z,97382.03
2023-03-26T18:57:24.309Z,97387.28
2023-03-26T18:59:52.798Z,97377.50
2023-03-26T19:02:20.073Z,97376.97
2023-03-26T19:04:49.588Z,97369.88
2023-03-26T19:07:22.363Z,97380.72
2023-03-26T19:09:50.479Z,97374.63
2023-03-26T19:12:20.477Z,97372.59
2023-03-26T19:14:51.768Z,97363.47
2023-03-26T19:17:18.715Z,97360.94
2023-03-26T19:19:45.907Z,97366.84
2023-03-26T19:22:12.776Z,97359.06
2023-03-26T19:24:40.599Z,97364.47
2023-03-26T19:27:07.794Z,97357.88
2023-03-26T19:29:35.194Z,97351.63
2023-03-26T19:32:06.736Z,97354.69
2023-03-26T19:34:35.560Z,97346.38
2023-03-26T19:37:04.287Z,97340.47
2023-03-26T19:39:45.188Z,97337.25
2023-03-26T19:42:17.805Z,97336.75
2023-03-26T19:44:44.962Z,97336.56
2023-03-26T19:47:31.923Z,97331.50
2023-03-26T19:50:26.947Z,97330.00
2023-03-26T19:53:16.631Z,97318.47
2023-03-26T19:55:58.007Z,97319.19
2023-03-26T19:58:26.201Z,97310.72
2023-03-26T20:00:53.890Z,97314.44
2023-03-26T20:03:29.253Z,97302.78
2023-03-26T20:05:56.690Z,97295.34
2023-03-26T20:08:32.879Z,97294.66
2023-03-26T20:11:00.155Z,97298.00
2023-03-26T20:13:26.949Z,97292.59
2023-03-26T20:16:07.753Z,97282.63
2023-03-26T20:18:35.071Z,97278.06
2023-03-26T20:21:05.276Z,97274.84
2023-03-26T20:23:32.145Z,97268.94
2023-03-26T20:25:59.229Z,97268.09
2023-03-26T20:28:25.988Z,97265.22
2023-03-26T20:30:54.575Z,97254.75
2023-03-26T20:33:25.518Z,97248.50
2023-03-26T20:35:54.176Z,97243.44
2023-03-26T20:38:26.535Z,97246.97
2023-03-26T20:41:00.046Z,97238.34
2023-03-26T20:43:30.176Z,97232.78
2023-03-26T20:45:58.563Z,97222.81
2023-03-26T20:48:28.122Z,97228.22
2023-03-26T20:50:57.137Z,97224.00
2023-03-26T20:53:24.014Z,97212.00
2023-03-26T20:55:51.814Z,97210.81
2023-03-26T20:58:31.180Z,97208.63
2023-03-26T21:01:00.897Z,97208.63
2023-03-26T21:03:27.902Z,97208.78
2023-03-26T21:05:55.042Z,97206.59
2023-03-26T21:08:25.662Z,97211.50
2023-03-26T21:10:56.078Z,97212.00
2023-03-26T21:13:40.181Z,97219.25
2023-03-26T21:16:08.271Z,97234.13
2023-03-26T21:18:35.523Z,97225.16
2023-03-26T21:21:20.099Z,97232.94
2023-03-26T21:24:17.981Z,97233.97
2023-03-26T21:26:50.739Z,97234.47
2023-03-26T21:29:17.875Z,97237.81
2023-03-26T21:31:46.696Z,97241.38
2023-03-26T21:34:14.009Z,97238.00
2023-03-26T21:36:42.052Z,97235.28
2023-03-26T21:39:10.974Z,97224.63
2023-03-26T21:41:47.746Z,97226.00
2023-03-26T21:44:16.413Z,97222.97
2023-03-26T21:46:44.376Z,97226.66
2023-03-26T21:49:12.149Z,97219.59
2023-03-26T21:51:39.458Z,97212.84
2023-03-26T21:54:28.023Z,97212.50
2023-03-26T21:56:59.097Z,97204.72
2023-03-26T21:59:41.316Z,97212.81
2023-03-26T22:02:29.890Z,97220.09
2023-03-26T22:04:59.450Z,97217.88
2023-03-26T22:07:50.898Z,97221.41
2023-03-26T22:10:17.881Z,97228.69
2023-03-26T22:12:44.955Z,97220.56
2023-03-26T22:15:13.918Z,97217.03
2023-03-26T22:17:41.899Z,97216.66
2023-03-26T22:20:13.510Z,97209.09
2023-03-26T22:22:41.549Z,97204.00
2023-03-26T22:25:10.404Z,97197.78
2023-03-26T22:27:43.901Z,97201.78
2023-03-26T22:30:12.430Z,97190.16
2023-03-26T22:32:39.963Z,97201.78
2023-03-26T22:35:07.222Z,97203.66
2023-03-26T22:37:35.586Z,97195.38
2023-03-26T22:40:04.450Z,97196.72
2023-03-26T22:42:31.598Z,97194.38
2023-03-26T22:44:58.339Z,97189.66
2023-03-26T22:47:25.425Z,97176.16
2023-03-26T22:49:52.475Z,97182.19
2023-03-26T22:52:19.611Z,97181.56
2023-03-26T22:54:46.505Z,97172.63
2023-03-26T22:57:13.763Z,97177.84
2023-03-26T22:59:40.806Z,97175.97
2023-03-26T23:02:09.879Z,97168.53
2023-03-26T23:04:37.630Z,97165.50
2023-03-26T23:07:05.316Z,97154.03
2023-03-26T23:09:32.075Z,97160.44
2023-03-26T23:11:59.156Z,97158.91
2023-03-26T23:14:26.055Z,97164.81
2023-03-26T23:16:53.090Z,97162.44
2023-03-26T23:19:19.963Z,97161.63
2023-03-26T23:21:47.041Z,97162.78
2023-03-26T23:24:15.643Z,97161.44
2023-03-26T23:26:50.548Z,97158.22
2023-03-26T23:29:18.375Z,97160.91
2023-03-26T23:31:45.454Z,97156.72
2023-03-26T23:34:13.600Z,97159.56
2023-03-26T23:36:41.886Z,97146.75
2023-03-26T23:39:09.327Z,97158.22
2023-03-26T23:41:36.873Z,97154.50
2023-03-26T23:44:03.865Z,97149.09
2023-03-26T23:46:33.920Z,97155.31
2023-03-26T23:49:02.469Z,97153.50
2023-03-26T23:51:32.772Z,97150.28
2023-03-26T23:54:00.147Z,97147.75
2023-03-26T23:56:30.114Z,97146.88
2023-03-26T23:58:57.209Z,97148.78
